Delray Beach, FL

1:14 AM EDT on May 05, 2015 (GMT -0400)
Delray Beach | | Change Station
CLOSE
Current Station
Personal Weather Station
Location: Delray Beach, FL
Elevation: 30 ft
Nearby Weather Stations

Elev 30 ft 26.47 °N, 80.09 °W | Updated 28 seconds ago

Mostly Cloudy
Mostly Cloudy
75.2 °F
Feels Like 75 °F
N
2.2
Wind Variable Wind from NE
Gusts 8.3 mph

Today
High -- | Low -- °F
--% Chance of Precip.
Yesterday
High -- | Low -- °F
Precip. -- in
6:39 AM 7:54 PM
Full, 99% visible
Pressure 30.11 in
Visibility 10.0 miles
Clouds Scattered Clouds 2500 ft
Heat Index 75 °F
Dew Point 70 °F
Humidity 83%
Rainfall 0.00 in
Snow Depth Not available.
UV 0 out of 12
Pollen 5.80 out of 12
Air Quality Not available.
Flu Activity Local Activity
METAR KPMP 050453Z AUTO 07015G21KT 10SM SCT025 24/19 A3010 RMK AO2 SLP194 T02440194 402670222

More Conditions Fewer Conditions

Pressure 30.11 in
Visibility 10.0 miles
Clouds Scattered Clouds 2500 ft
Heat Index 75 °F
Dew Point 70 °F
Humidity 83%
Rainfall 0.00 in
Snow Depth Not available.
UV 0 out of 12
Pollen 5.80 out of 12
Air Quality Not available.
Flu Activity Local Activity
METAR KPMP 050453Z AUTO 07015G21KT 10SM SCT025 24/19 A3010 RMK AO2 SLP194 T02440194 402670222

More Conditions Fewer Conditions

Nepal has a long way to go to dig out and rebuild from a devastating earthquake. We have teamed up with several charities and organizations to make contributing to the relief effort as easy as possible.
How you can help: Portlight Strategies | Red Cross
Nowcast | as of 12:05 am EDT on May 5, 2015

Scattered showers will move west at 10 mph across the Atlantic waters with brief heavy downpours lowering the visibility to less than three miles. A few of the showers will move onshore of the southeast coast and move inland 20-30 miles before dissipating. Mariners can expect gusty winds to 25 knots and locally rough seas near the stronger showers.

×

10-Day Weather Forecast

Almanac

Astronomy

May. 05, 2015 Rise Set
Actual Time
Civil Twilight
Nautical Twilight
Astronomical Twilight
Moon
Length of Visible Light
Length of Day
Tomorrow will be .
, % of the Moon is Illuminated

Today's Extremes

State Highs State Lows

Community

WunderPhotos

Upload Photos

1,818,814 photos uploaded!

WunderBlogs® & News

Nearby

Air Quality

  Air Quality AQ Index Pollutant
Not available.

Snow Depth

Station Depth Elevation

Earthquake Activity

City Distance Mag. Time & Date
Minimum magnitude displayed is 2.5.

Coastal Water Temperatures

Place Temperature

Stations

Nearby Weather Stations

Station Location Temp. Windchill Dew Point Humidity Wind Precip. Elev Updated Type